sensor_id;sensor_type;location;lat;lon;timestamp;P1;durP1;ratioP1;P2;durP2;ratioP2
70832;SDS011;58452;59.418;17.962;2023-03-25T00:02:07;0.00;;;0.00;;
70832;SDS011;58452;59.418;17.962;2023-03-25T00:04:32;0.13;;;0.13;;
70832;SDS011;58452;59.418;17.962;2023-03-25T00:06:59;0.57;;;0.10;;
70832;SDS011;58452;59.418;17.962;2023-03-25T00:09:25;0.30;;;0.20;;
70832;SDS011;58452;59.418;17.962;2023-03-25T00:11:51;0.55;;;0.17;;
70832;SDS011;58452;59.418;17.962;2023-03-25T00:14:17;0.10;;;0.10;;
70832;SDS011;58452;59.418;17.962;2023-03-25T00:16:43;0.00;;;0.00;;
70832;SDS011;58452;59.418;17.962;2023-03-25T00:19:13;0.10;;;0.10;;
70832;SDS011;58452;59.418;17.962;2023-03-25T00:21:39;0.10;;;0.10;;
70832;SDS011;58452;59.418;17.962;2023-03-25T00:24:08;0.22;;;0.10;;
70832;SDS011;58452;59.418;17.962;2023-03-25T00:26:36;0.13;;;0.10;;
70832;SDS011;58452;59.418;17.962;2023-03-25T00:29:09;0.15;;;0.15;;
70832;SDS011;58452;59.418;17.962;2023-03-25T00:31:35;0.00;;;0.00;;
70832;SDS011;58452;59.418;17.962;2023-03-25T00:34:00;0.10;;;0.10;;
70832;SDS011;58452;59.418;17.962;2023-03-25T00:36:26;0.10;;;0.10;;
70832;SDS011;58452;59.418;17.962;2023-03-25T00:38:51;0.10;;;0.10;;
70832;SDS011;58452;59.418;17.962;2023-03-25T00:41:22;0.10;;;0.10;;
70832;SDS011;58452;59.418;17.962;2023-03-25T00:43:52;0.20;;;0.20;;
70832;SDS011;58452;59.418;17.962;2023-03-25T00:46:22;0.13;;;0.13;;
70832;SDS011;58452;59.418;17.962;2023-03-25T00:48:50;0.10;;;0.10;;
70832;SDS011;58452;59.418;17.962;2023-03-25T00:51:16;0.15;;;0.15;;
70832;SDS011;58452;59.418;17.962;2023-03-25T00:53:45;0.20;;;0.20;;
70832;SDS011;58452;59.418;17.962;2023-03-25T00:56:12;0.20;;;0.13;;
70832;SDS011;58452;59.418;17.962;2023-03-25T00:58:38;0.10;;;0.10;;
70832;SDS011;58452;59.418;17.962;2023-03-25T01:01:46;0.30;;;0.20;;
70832;SDS011;58452;59.418;17.962;2023-03-25T01:03:56;0.20;;;0.20;;
70832;SDS011;58452;59.418;17.962;2023-03-25T01:06:33;0.10;;;0.10;;
70832;SDS011;58452;59.418;17.962;2023-03-25T01:09:00;0.30;;;0.20;;
70832;SDS011;58452;59.418;17.962;2023-03-25T01:11:28;0.10;;;0.10;;
70832;SDS011;58452;59.418;17.962;2023-03-25T01:13:58;0.40;;;0.28;;
70832;SDS011;58452;59.418;17.962;2023-03-25T01:16:25;0.15;;;0.15;;
70832;SDS011;58452;59.418;17.962;2023-03-25T01:18:51;0.20;;;0.20;;
70832;SDS011;58452;59.418;17.962;2023-03-25T01:21:16;0.25;;;0.25;;
70832;SDS011;58452;59.418;17.962;2023-03-25T01:23:42;0.20;;;0.20;;
70832;SDS011;58452;59.418;17.962;2023-03-25T01:26:08;1.75;;;0.40;;
70832;SDS011;58452;59.418;17.962;2023-03-25T01:28:33;1.00;;;0.50;;
70832;SDS011;58452;59.418;17.962;2023-03-25T01:31:00;0.50;;;0.50;;
70832;SDS011;58452;59.418;17.962;2023-03-25T01:33:29;2.17;;;0.50;;
70832;SDS011;58452;59.418;17.962;2023-03-25T01:35:56;1.17;;;0.57;;
70832;SDS011;58452;59.418;17.962;2023-03-25T01:38:22;1.20;;;1.08;;
70832;SDS011;58452;59.418;17.962;2023-03-25T01:40:49;1.02;;;0.98;;
70832;SDS011;58452;59.418;17.962;2023-03-25T01:43:16;1.08;;;0.95;;
70832;SDS011;58452;59.418;17.962;2023-03-25T01:45:42;0.60;;;0.60;;
70832;SDS011;58452;59.418;17.962;2023-03-25T01:48:14;1.77;;;0.90;;
70832;SDS011;58452;59.418;17.962;2023-03-25T01:50:44;3.40;;;1.15;;
70832;SDS011;58452;59.418;17.962;2023-03-25T01:53:15;2.55;;;1.15;;
70832;SDS011;58452;59.418;17.962;2023-03-25T01:55:40;1.33;;;1.10;;
70832;SDS011;58452;59.418;17.962;2023-03-25T01:58:09;4.75;;;1.13;;
70832;SDS011;58452;59.418;17.962;2023-03-25T02:00:41;2.30;;;0.95;;
70832;SDS011;58452;59.418;17.962;2023-03-25T02:03:08;3.05;;;0.85;;
70832;SDS011;58452;59.418;17.962;2023-03-25T02:05:41;1.02;;;0.93;;
70832;SDS011;58452;59.418;17.962;2023-03-25T02:08:12;1.77;;;0.73;;
70832;SDS011;58452;59.418;17.962;2023-03-25T02:10:39;1.17;;;0.95;;
70832;SDS011;58452;59.418;17.962;2023-03-25T02:13:09;4.93;;;1.20;;
70832;SDS011;58452;59.418;17.962;2023-03-25T02:15:47;1.73;;;1.42;;
70832;SDS011;58452;59.418;17.962;2023-03-25T02:18:36;2.90;;;1.45;;
70832;SDS011;58452;59.418;17.962;2023-03-25T02:21:28;2.92;;;1.85;;
70832;SDS011;58452;59.418;17.962;2023-03-25T02:24:20;2.20;;;1.52;;
70832;SDS011;58452;59.418;17.962;2023-03-25T02:27:07;4.95;;;1.23;;
70832;SDS011;58452;59.418;17.962;2023-03-25T02:43:40;3.67;;;2.65;;
70832;SDS011;58452;59.418;17.962;2023-03-25T02:46:25;1.95;;;1.77;;
70832;SDS011;58452;59.418;17.962;2023-03-25T02:48:55;3.63;;;1.38;;
70832;SDS011;58452;59.418;17.962;2023-03-25T02:51:29;1.73;;;1.38;;
70832;SDS011;58452;59.418;17.962;2023-03-25T02:53:58;1.80;;;1.33;;
70832;SDS011;58452;59.418;17.962;2023-03-25T02:56:27;2.15;;;1.08;;
70832;SDS011;58452;59.418;17.962;2023-03-25T02:58:57;3.50;;;1.48;;
70832;SDS011;58452;59.418;17.962;2023-03-25T03:01:25;2.20;;;1.17;;
70832;SDS011;58452;59.418;17.962;2023-03-25T03:03:53;2.65;;;1.55;;
70832;SDS011;58452;59.418;17.962;2023-03-25T03:06:20;2.38;;;1.83;;
70832;SDS011;58452;59.418;17.962;2023-03-25T03:24:49;1.85;;;1.63;;
70832;SDS011;58452;59.418;17.962;2023-03-25T03:27:26;3.15;;;1.52;;
70832;SDS011;58452;59.418;17.962;2023-03-25T03:33:07;3.10;;;1.90;;
70832;SDS011;58452;59.418;17.962;2023-03-25T03:35:42;3.72;;;1.70;;
70832;SDS011;58452;59.418;17.962;2023-03-25T03:38:14;3.25;;;2.10;;
70832;SDS011;58452;59.418;17.962;2023-03-25T03:40:44;3.67;;;2.53;;
70832;SDS011;58452;59.418;17.962;2023-03-25T03:43:21;3.67;;;2.17;;
70832;SDS011;58452;59.418;17.962;2023-03-25T03:45:57;3.40;;;1.70;;
70832;SDS011;58452;59.418;17.962;2023-03-25T03:48:29;2.30;;;1.50;;
70832;SDS011;58452;59.418;17.962;2023-03-25T03:51:04;4.68;;;1.73;;
70832;SDS011;58452;59.418;17.962;2023-03-25T03:53:36;1.67;;;1.55;;
70832;SDS011;58452;59.418;17.962;2023-03-25T03:56:10;2.10;;;1.90;;
70832;SDS011;58452;59.418;17.962;2023-03-25T03:58:46;4.65;;;2.45;;
70832;SDS011;58452;59.418;17.962;2023-03-25T04:03:50;4.07;;;2.08;;
70832;SDS011;58452;59.418;17.962;2023-03-25T04:06:25;5.38;;;2.72;;
70832;SDS011;58452;59.418;17.962;2023-03-25T04:11:55;3.03;;;2.30;;
70832;SDS011;58452;59.418;17.962;2023-03-25T04:14:24;4.63;;;2.20;;
70832;SDS011;58452;59.418;17.962;2023-03-25T04:16:50;3.20;;;2.17;;
70832;SDS011;58452;59.418;17.962;2023-03-25T04:19:17;2.00;;;1.70;;
70832;SDS011;58452;59.418;17.962;2023-03-25T04:21:44;2.20;;;1.60;;
70832;SDS011;58452;59.418;17.962;2023-03-25T04:24:12;3.15;;;2.80;;
70832;SDS011;58452;59.418;17.962;2023-03-25T04:26:40;5.10;;;2.38;;
70832;SDS011;58452;59.418;17.962;2023-03-25T04:29:07;4.60;;;2.35;;
70832;SDS011;58452;59.418;17.962;2023-03-25T04:31:33;7.60;;;2.50;;
70832;SDS011;58452;59.418;17.962;2023-03-25T04:33:59;4.15;;;1.70;;
70832;SDS011;58452;59.418;17.962;2023-03-25T04:36:26;3.88;;;2.40;;
70832;SDS011;58452;59.418;17.962;2023-03-25T04:39:01;5.07;;;1.85;;
70832;SDS011;58452;59.418;17.962;2023-03-25T04:41:27;3.08;;;2.40;;
70832;SDS011;58452;59.418;17.962;2023-03-25T04:43:53;5.07;;;2.05;;
70832;SDS011;58452;59.418;17.962;2023-03-25T04:46:18;2.45;;;2.10;;
70832;SDS011;58452;59.418;17.962;2023-03-25T04:48:44;3.85;;;2.20;;
70832;SDS011;58452;59.418;17.962;2023-03-25T04:51:11;3.83;;;2.10;;
70832;SDS011;58452;59.418;17.962;2023-03-25T04:53:38;3.20;;;1.77;;
70832;SDS011;58452;59.418;17.962;2023-03-25T04:56:05;7.07;;;2.58;;
70832;SDS011;58452;59.418;17.962;2023-03-25T04:58:37;3.72;;;2.35;;
70832;SDS011;58452;59.418;17.962;2023-03-25T05:01:03;7.63;;;2.00;;
70832;SDS011;58452;59.418;17.962;2023-03-25T05:03:35;3.50;;;2.63;;
70832;SDS011;58452;59.418;17.962;2023-03-25T05:06:04;5.53;;;2.85;;
70832;SDS011;58452;59.418;17.962;2023-03-25T05:08:30;5.78;;;2.30;;
70832;SDS011;58452;59.418;17.962;2023-03-25T05:10:55;5.32;;;2.78;;
70832;SDS011;58452;59.418;17.962;2023-03-25T05:13:21;5.32;;;2.53;;
70832;SDS011;58452;59.418;17.962;2023-03-25T05:15:46;4.63;;;2.33;;
70832;SDS011;58452;59.418;17.962;2023-03-25T05:18:12;6.63;;;2.47;;
70832;SDS011;58452;59.418;17.962;2023-03-25T05:20:40;4.95;;;2.83;;
70832;SDS011;58452;59.418;17.962;2023-03-25T05:23:08;5.55;;;3.22;;
70832;SDS011;58452;59.418;17.962;2023-03-25T05:25:37;6.07;;;2.50;;
70832;SDS011;58452;59.418;17.962;2023-03-25T05:28:04;5.68;;;2.78;;
70832;SDS011;58452;59.418;17.962;2023-03-25T05:30:34;5.40;;;2.33;;
70832;SDS011;58452;59.418;17.962;2023-03-25T05:33:04;5.15;;;2.65;;
70832;SDS011;58452;59.418;17.962;2023-03-25T05:35:30;6.32;;;2.85;;
70832;SDS011;58452;59.418;17.962;2023-03-25T05:37:56;4.32;;;2.42;;
70832;SDS011;58452;59.418;17.962;2023-03-25T05:40:21;3.47;;;2.25;;
70832;SDS011;58452;59.418;17.962;2023-03-25T05:42:47;5.07;;;2.72;;
70832;SDS011;58452;59.418;17.962;2023-03-25T05:45:13;4.72;;;2.65;;
70832;SDS011;58452;59.418;17.962;2023-03-25T05:47:40;4.40;;;2.72;;
70832;SDS011;58452;59.418;17.962;2023-03-25T05:50:07;3.72;;;2.42;;
70832;SDS011;58452;59.418;17.962;2023-03-25T05:52:33;4.18;;;3.25;;
70832;SDS011;58452;59.418;17.962;2023-03-25T05:54:59;6.00;;;1.98;;
70832;SDS011;58452;59.418;17.962;2023-03-25T05:57:25;4.47;;;2.17;;
70832;SDS011;58452;59.418;17.962;2023-03-25T05:59:50;5.07;;;2.65;;
70832;SDS011;58452;59.418;17.962;2023-03-25T06:02:15;4.97;;;2.10;;
70832;SDS011;58452;59.418;17.962;2023-03-25T06:04:42;4.80;;;2.35;;
70832;SDS011;58452;59.418;17.962;2023-03-25T06:07:11;3.35;;;2.45;;
70832;SDS011;58452;59.418;17.962;2023-03-25T06:09:41;9.18;;;3.22;;
70832;SDS011;58452;59.418;17.962;2023-03-25T06:12:11;6.25;;;2.25;;
70832;SDS011;58452;59.418;17.962;2023-03-25T06:14:40;5.10;;;2.33;;
70832;SDS011;58452;59.418;17.962;2023-03-25T06:17:12;3.45;;;2.20;;
70832;SDS011;58452;59.418;17.962;2023-03-25T06:19:39;4.53;;;1.90;;
70832;SDS011;58452;59.418;17.962;2023-03-25T06:22:05;6.43;;;2.88;;
70832;SDS011;58452;59.418;17.962;2023-03-25T06:24:33;6.47;;;2.10;;
70832;SDS011;58452;59.418;17.962;2023-03-25T06:27:03;4.47;;;2.38;;
70832;SDS011;58452;59.418;17.962;2023-03-25T06:29:34;4.60;;;1.88;;
70832;SDS011;58452;59.418;17.962;2023-03-25T06:32:03;4.47;;;2.13;;
70832;SDS011;58452;59.418;17.962;2023-03-25T06:34:29;7.90;;;2.90;;
70832;SDS011;58452;59.418;17.962;2023-03-25T06:36:57;6.15;;;2.70;;
70832;SDS011;58452;59.418;17.962;2023-03-25T06:39:22;7.90;;;3.38;;
70832;SDS011;58452;59.418;17.962;2023-03-25T06:41:48;3.97;;;2.75;;
70832;SDS011;58452;59.418;17.962;2023-03-25T06:44:13;4.35;;;2.10;;
70832;SDS011;58452;59.418;17.962;2023-03-25T06:46:39;7.13;;;2.10;;
70832;SDS011;58452;59.418;17.962;2023-03-25T06:49:05;2.42;;;1.98;;
70832;SDS011;58452;59.418;17.962;2023-03-25T06:51:30;5.30;;;1.85;;
70832;SDS011;58452;59.418;17.962;2023-03-25T06:53:55;4.22;;;2.65;;
70832;SDS011;58452;59.418;17.962;2023-03-25T06:56:21;1.55;;;1.38;;
70832;SDS011;58452;59.418;17.962;2023-03-25T06:58:46;3.03;;;1.95;;
70832;SDS011;58452;59.418;17.962;2023-03-25T07:01:12;4.47;;;1.67;;
70832;SDS011;58452;59.418;17.962;2023-03-25T07:03:37;9.15;;;2.42;;
70832;SDS011;58452;59.418;17.962;2023-03-25T07:06:05;3.90;;;1.63;;
70832;SDS011;58452;59.418;17.962;2023-03-25T07:08:31;2.88;;;1.60;;
70832;SDS011;58452;59.418;17.962;2023-03-25T07:11:01;3.00;;;1.45;;
70832;SDS011;58452;59.418;17.962;2023-03-25T07:13:28;5.00;;;2.78;;
70832;SDS011;58452;59.418;17.962;2023-03-25T07:15:55;2.08;;;1.45;;
70832;SDS011;58452;59.418;17.962;2023-03-25T07:18:21;3.90;;;1.38;;
70832;SDS011;58452;59.418;17.962;2023-03-25T07:20:47;3.20;;;1.55;;
70832;SDS011;58452;59.418;17.962;2023-03-25T07:23:12;5.20;;;1.83;;
70832;SDS011;58452;59.418;17.962;2023-03-25T07:25:37;8.52;;;2.15;;
70832;SDS011;58452;59.418;17.962;2023-03-25T07:28:03;3.00;;;1.70;;
70832;SDS011;58452;59.418;17.962;2023-03-25T07:30:29;2.70;;;1.58;;
70832;SDS011;58452;59.418;17.962;2023-03-25T07:32:54;5.13;;;1.70;;
70832;SDS011;58452;59.418;17.962;2023-03-25T07:35:20;3.42;;;2.20;;
70832;SDS011;58452;59.418;17.962;2023-03-25T07:37:45;5.13;;;1.98;;
70832;SDS011;58452;59.418;17.962;2023-03-25T07:40:11;4.00;;;1.83;;
70832;SDS011;58452;59.418;17.962;2023-03-25T07:42:36;1.92;;;1.42;;
70832;SDS011;58452;59.418;17.962;2023-03-25T07:45:03;4.97;;;2.03;;
70832;SDS011;58452;59.418;17.962;2023-03-25T07:47:29;3.63;;;2.05;;
70832;SDS011;58452;59.418;17.962;2023-03-25T07:49:55;3.95;;;1.88;;
70832;SDS011;58452;59.418;17.962;2023-03-25T07:52:20;4.47;;;1.83;;
70832;SDS011;58452;59.418;17.962;2023-03-25T07:54:46;2.17;;;1.60;;
70832;SDS011;58452;59.418;17.962;2023-03-25T07:57:11;3.55;;;1.92;;
70832;SDS011;58452;59.418;17.962;2023-03-25T07:59:37;3.50;;;2.05;;
70832;SDS011;58452;59.418;17.962;2023-03-25T08:02:03;2.42;;;1.90;;
70832;SDS011;58452;59.418;17.962;2023-03-25T08:04:28;3.88;;;1.73;;
70832;SDS011;58452;59.418;17.962;2023-03-25T08:06:54;2.45;;;1.88;;
70832;SDS011;58452;59.418;17.962;2023-03-25T08:09:19;2.58;;;1.60;;
70832;SDS011;58452;59.418;17.962;2023-03-25T08:11:46;3.10;;;2.00;;
70832;SDS011;58452;59.418;17.962;2023-03-25T08:14:11;3.88;;;1.58;;
70832;SDS011;58452;59.418;17.962;2023-03-25T08:16:37;1.98;;;1.80;;
70832;SDS011;58452;59.418;17.962;2023-03-25T08:19:02;3.05;;;1.80;;
70832;SDS011;58452;59.418;17.962;2023-03-25T08:21:28;3.95;;;1.60;;
70832;SDS011;58452;59.418;17.962;2023-03-25T08:23:54;3.05;;;1.70;;
70832;SDS011;58452;59.418;17.962;2023-03-25T08:26:26;4.68;;;2.10;;
70832;SDS011;58452;59.418;17.962;2023-03-25T08:28:53;2.78;;;1.70;;
70832;SDS011;58452;59.418;17.962;2023-03-25T08:31:21;2.55;;;1.70;;
70832;SDS011;58452;59.418;17.962;2023-03-25T08:33:47;2.75;;;1.70;;
70832;SDS011;58452;59.418;17.962;2023-03-25T08:36:12;3.53;;;1.30;;
70832;SDS011;58452;59.418;17.962;2023-03-25T08:38:43;2.25;;;1.40;;
70832;SDS011;58452;59.418;17.962;2023-03-25T08:41:09;2.45;;;1.65;;
70832;SDS011;58452;59.418;17.962;2023-03-25T08:43:35;2.30;;;1.40;;
70832;SDS011;58452;59.418;17.962;2023-03-25T08:46:00;4.07;;;1.50;;
70832;SDS011;58452;59.418;17.962;2023-03-25T08:48:26;2.17;;;1.50;;
70832;SDS011;58452;59.418;17.962;2023-03-25T08:50:51;3.28;;;2.05;;
70832;SDS011;58452;59.418;17.962;2023-03-25T08:53:17;4.25;;;1.75;;
70832;SDS011;58452;59.418;17.962;2023-03-25T08:55:43;2.88;;;1.77;;
70832;SDS011;58452;59.418;17.962;2023-03-25T08:58:08;4.40;;;1.85;;
70832;SDS011;58452;59.418;17.962;2023-03-25T09:00:34;4.30;;;1.83;;
70832;SDS011;58452;59.418;17.962;2023-03-25T09:03:02;2.90;;;1.60;;
70832;SDS011;58452;59.418;17.962;2023-03-25T09:05:28;6.35;;;2.85;;
70832;SDS011;58452;59.418;17.962;2023-03-25T09:07:54;2.75;;;1.60;;
70832;SDS011;58452;59.418;17.962;2023-03-25T09:10:19;4.68;;;1.60;;
70832;SDS011;58452;59.418;17.962;2023-03-25T09:12:45;3.13;;;2.47;;
70832;SDS011;58452;59.418;17.962;2023-03-25T09:15:11;2.40;;;1.33;;
70832;SDS011;58452;59.418;17.962;2023-03-25T09:17:37;1.98;;;1.67;;
70832;SDS011;58452;59.418;17.962;2023-03-25T09:20:03;2.13;;;1.60;;
70832;SDS011;58452;59.418;17.962;2023-03-25T09:22:32;4.03;;;1.65;;
70832;SDS011;58452;59.418;17.962;2023-03-25T09:24:58;2.13;;;1.30;;
70832;SDS011;58452;59.418;17.962;2023-03-25T09:27:24;3.15;;;1.50;;
70832;SDS011;58452;59.418;17.962;2023-03-25T09:29:49;2.83;;;1.88;;
70832;SDS011;58452;59.418;17.962;2023-03-25T09:32:15;3.75;;;2.10;;
70832;SDS011;58452;59.418;17.962;2023-03-25T09:34:42;3.40;;;1.80;;
70832;SDS011;58452;59.418;17.962;2023-03-25T09:37:08;4.20;;;2.17;;
70832;SDS011;58452;59.418;17.962;2023-03-25T09:39:34;2.20;;;1.65;;
70832;SDS011;58452;59.418;17.962;2023-03-25T09:44:51;2.70;;;1.55;;
70832;SDS011;58452;59.418;17.962;2023-03-25T09:47:40;2.30;;;1.75;;
70832;SDS011;58452;59.418;17.962;2023-03-25T09:50:10;2.70;;;1.60;;
70832;SDS011;58452;59.418;17.962;2023-03-25T09:55:39;2.45;;;2.00;;
70832;SDS011;58452;59.418;17.962;2023-03-25T10:00:54;2.00;;;1.52;;
70832;SDS011;58452;59.418;17.962;2023-03-25T10:07:20;3.42;;;1.30;;
70832;SDS011;58452;59.418;17.962;2023-03-25T10:15:33;3.35;;;1.77;;
70832;SDS011;58452;59.418;17.962;2023-03-25T10:32:33;4.63;;;2.53;;
70832;SDS011;58452;59.418;17.962;2023-03-25T10:35:08;4.18;;;2.03;;
70832;SDS011;58452;59.418;17.962;2023-03-25T10:37:40;2.22;;;1.67;;
70832;SDS011;58452;59.418;17.962;2023-03-25T10:42:43;3.63;;;2.15;;
70832;SDS011;58452;59.418;17.962;2023-03-25T10:45:19;2.63;;;2.00;;
70832;SDS011;58452;59.418;17.962;2023-03-25T10:47:46;3.10;;;1.60;;
70832;SDS011;58452;59.418;17.962;2023-03-25T10:50:14;4.85;;;2.20;;
70832;SDS011;58452;59.418;17.962;2023-03-25T10:52:41;4.10;;;1.83;;
70832;SDS011;58452;59.418;17.962;2023-03-25T10:55:15;3.45;;;2.15;;
70832;SDS011;58452;59.418;17.962;2023-03-25T10:57:48;3.75;;;1.77;;
70832;SDS011;58452;59.418;17.962;2023-03-25T11:00:15;3.60;;;1.60;;
70832;SDS011;58452;59.418;17.962;2023-03-25T11:02:46;7.05;;;4.38;;
70832;SDS011;58452;59.418;17.962;2023-03-25T11:05:13;2.25;;;2.03;;
70832;SDS011;58452;59.418;17.962;2023-03-25T11:08:03;5.60;;;3.05;;
70832;SDS011;58452;59.418;17.962;2023-03-25T11:10:30;2.53;;;2.08;;
70832;SDS011;58452;59.418;17.962;2023-03-25T11:12:58;3.17;;;2.22;;
70832;SDS011;58452;59.418;17.962;2023-03-25T11:15:34;2.38;;;1.77;;
70832;SDS011;58452;59.418;17.962;2023-03-25T11:20:50;2.78;;;1.70;;
70832;SDS011;58452;59.418;17.962;2023-03-25T11:25:43;2.70;;;1.85;;
70832;SDS011;58452;59.418;17.962;2023-03-25T11:28:19;3.95;;;2.00;;
70832;SDS011;58452;59.418;17.962;2023-03-25T11:31:08;1.58;;;1.48;;
70832;SDS011;58452;59.418;17.962;2023-03-25T11:33:34;8.20;;;2.70;;
70832;SDS011;58452;59.418;17.962;2023-03-25T11:36:10;4.38;;;2.20;;
70832;SDS011;58452;59.418;17.962;2023-03-25T11:38:44;4.38;;;2.67;;
70832;SDS011;58452;59.418;17.962;2023-03-25T11:41:12;4.05;;;2.10;;
70832;SDS011;58452;59.418;17.962;2023-03-25T11:43:38;4.78;;;1.88;;
70832;SDS011;58452;59.418;17.962;2023-03-25T11:46:12;2.90;;;2.28;;
70832;SDS011;58452;59.418;17.962;2023-03-25T11:48:40;2.65;;;2.08;;
70832;SDS011;58452;59.418;17.962;2023-03-25T11:51:17;2.35;;;2.15;;
70832;SDS011;58452;59.418;17.962;2023-03-25T11:57:14;2.72;;;2.05;;
70832;SDS011;58452;59.418;17.962;2023-03-25T11:59:44;4.03;;;2.60;;
70832;SDS011;58452;59.418;17.962;2023-03-25T12:02:22;3.15;;;2.03;;
70832;SDS011;58452;59.418;17.962;2023-03-25T12:13:04;3.92;;;2.50;;
70832;SDS011;58452;59.418;17.962;2023-03-25T12:18:53;2.25;;;1.77;;
70832;SDS011;58452;59.418;17.962;2023-03-25T12:29:51;1.33;;;1.20;;
70832;SDS011;58452;59.418;17.962;2023-03-25T12:35:25;3.17;;;1.40;;
70832;SDS011;58452;59.418;17.962;2023-03-25T12:43:09;2.58;;;1.25;;
70832;SDS011;58452;59.418;17.962;2023-03-25T12:51:38;1.50;;;1.30;;
70832;SDS011;58452;59.418;17.962;2023-03-25T13:07:50;2.70;;;1.50;;
70832;SDS011;58452;59.418;17.962;2023-03-25T13:10:22;2.60;;;1.77;;
70832;SDS011;58452;59.418;17.962;2023-03-25T13:12:52;1.83;;;1.52;;
70832;SDS011;58452;59.418;17.962;2023-03-25T13:17:59;1.70;;;1.60;;
70832;SDS011;58452;59.418;17.962;2023-03-25T13:20:32;1.45;;;1.35;;
70832;SDS011;58452;59.418;17.962;2023-03-25T13:23:02;1.70;;;1.60;;
70832;SDS011;58452;59.418;17.962;2023-03-25T13:28:36;5.32;;;2.25;;
70832;SDS011;58452;59.418;17.962;2023-03-25T13:31:17;3.58;;;1.50;;
70832;SDS011;58452;59.418;17.962;2023-03-25T13:34:04;1.85;;;1.35;;
70832;SDS011;58452;59.418;17.962;2023-03-25T13:36:46;2.25;;;1.23;;
70832;SDS011;58452;59.418;17.962;2023-03-25T13:42:17;2.05;;;1.85;;
70832;SDS011;58452;59.418;17.962;2023-03-25T13:45:03;2.45;;;2.25;;
70832;SDS011;58452;59.418;17.962;2023-03-25T13:47:30;2.20;;;2.00;;
70832;SDS011;58452;59.418;17.962;2023-03-25T13:50:09;4.93;;;2.20;;
70832;SDS011;58452;59.418;17.962;2023-03-25T13:52:46;3.33;;;2.50;;
70832;SDS011;58452;59.418;17.962;2023-03-25T13:55:18;2.33;;;1.80;;
70832;SDS011;58452;59.418;17.962;2023-03-25T14:00:23;3.53;;;2.90;;
70832;SDS011;58452;59.418;17.962;2023-03-25T14:16:21;5.22;;;2.20;;
70832;SDS011;58452;59.418;17.962;2023-03-25T14:18:54;2.85;;;2.13;;
70832;SDS011;58452;59.418;17.962;2023-03-25T14:26:40;4.05;;;2.30;;
70832;SDS011;58452;59.418;17.962;2023-03-25T14:29:21;3.00;;;2.17;;
70832;SDS011;58452;59.418;17.962;2023-03-25T14:32:00;4.13;;;1.95;;
70832;SDS011;58452;59.418;17.962;2023-03-25T14:34:27;2.60;;;2.25;;
70832;SDS011;58452;59.418;17.962;2023-03-25T14:44:19;2.90;;;2.60;;
70832;SDS011;58452;59.418;17.962;2023-03-25T14:46:45;1.70;;;1.58;;
70832;SDS011;58452;59.418;17.962;2023-03-25T14:49:20;2.03;;;1.80;;
70832;SDS011;58452;59.418;17.962;2023-03-25T14:51:50;2.80;;;2.00;;
70832;SDS011;58452;59.418;17.962;2023-03-25T14:54:33;2.97;;;1.92;;
70832;SDS011;58452;59.418;17.962;2023-03-25T14:57:16;3.78;;;2.30;;
70832;SDS011;58452;59.418;17.962;2023-03-25T14:59:57;2.35;;;2.10;;
70832;SDS011;58452;59.418;17.962;2023-03-25T15:02:33;3.13;;;2.42;;
70832;SDS011;58452;59.418;17.962;2023-03-25T15:05:02;3.25;;;2.63;;
70832;SDS011;58452;59.418;17.962;2023-03-25T15:07:46;2.67;;;2.40;;
70832;SDS011;58452;59.418;17.962;2023-03-25T15:16:01;2.65;;;2.15;;
70832;SDS011;58452;59.418;17.962;2023-03-25T15:23:42;2.85;;;1.90;;
70832;SDS011;58452;59.418;17.962;2023-03-25T15:54:21;4.40;;;1.92;;
70832;SDS011;58452;59.418;17.962;2023-03-25T15:56:56;5.38;;;2.63;;
70832;SDS011;58452;59.418;17.962;2023-03-25T15:59:43;3.03;;;2.00;;
70832;SDS011;58452;59.418;17.962;2023-03-25T16:05:07;3.20;;;1.90;;
70832;SDS011;58452;59.418;17.962;2023-03-25T16:07:33;5.07;;;2.42;;
70832;SDS011;58452;59.418;17.962;2023-03-25T16:10:04;6.47;;;2.85;;
70832;SDS011;58452;59.418;17.962;2023-03-25T16:12:55;2.15;;;1.77;;
70832;SDS011;58452;59.418;17.962;2023-03-25T16:15:27;2.63;;;2.08;;
70832;SDS011;58452;59.418;17.962;2023-03-25T16:17:55;7.07;;;2.22;;
70832;SDS011;58452;59.418;17.962;2023-03-25T16:20:24;2.88;;;1.75;;
70832;SDS011;58452;59.418;17.962;2023-03-25T16:22:51;5.28;;;2.45;;
70832;SDS011;58452;59.418;17.962;2023-03-25T16:25:21;3.42;;;2.33;;
70832;SDS011;58452;59.418;17.962;2023-03-25T16:27:51;3.25;;;2.30;;
70832;SDS011;58452;59.418;17.962;2023-03-25T16:30:21;2.60;;;2.28;;
70832;SDS011;58452;59.418;17.962;2023-03-25T16:32:49;2.92;;;2.40;;
70832;SDS011;58452;59.418;17.962;2023-03-25T16:35:24;2.88;;;2.35;;
70832;SDS011;58452;59.418;17.962;2023-03-25T16:37:55;3.05;;;2.03;;
70832;SDS011;58452;59.418;17.962;2023-03-25T16:40:27;3.80;;;2.83;;
70832;SDS011;58452;59.418;17.962;2023-03-25T16:42:54;2.92;;;2.17;;
70832;SDS011;58452;59.418;17.962;2023-03-25T16:45:35;3.65;;;2.30;;
70832;SDS011;58452;59.418;17.962;2023-03-25T16:48:01;3.67;;;2.03;;
70832;SDS011;58452;59.418;17.962;2023-03-25T16:50:31;2.88;;;2.30;;
70832;SDS011;58452;59.418;17.962;2023-03-25T16:52:57;3.50;;;2.22;;
70832;SDS011;58452;59.418;17.962;2023-03-25T16:58:25;3.15;;;2.00;;
70832;SDS011;58452;59.418;17.962;2023-03-25T17:00:52;4.78;;;2.92;;
70832;SDS011;58452;59.418;17.962;2023-03-25T17:08:38;4.60;;;2.10;;
70832;SDS011;58452;59.418;17.962;2023-03-25T17:11:06;2.97;;;2.28;;
70832;SDS011;58452;59.418;17.962;2023-03-25T17:13:52;2.20;;;1.65;;
70832;SDS011;58452;59.418;17.962;2023-03-25T17:16:22;2.50;;;1.83;;
70832;SDS011;58452;59.418;17.962;2023-03-25T17:18:51;2.50;;;1.88;;
70832;SDS011;58452;59.418;17.962;2023-03-25T17:21:21;3.72;;;2.00;;
70832;SDS011;58452;59.418;17.962;2023-03-25T17:23:56;3.35;;;2.38;;
70832;SDS011;58452;59.418;17.962;2023-03-25T17:26:25;2.80;;;1.85;;
70832;SDS011;58452;59.418;17.962;2023-03-25T17:29:04;2.90;;;2.10;;
70832;SDS011;58452;59.418;17.962;2023-03-25T17:31:37;3.83;;;3.05;;
70832;SDS011;58452;59.418;17.962;2023-03-25T17:34:06;2.88;;;1.30;;
70832;SDS011;58452;59.418;17.962;2023-03-25T17:36:41;2.13;;;1.92;;
70832;SDS011;58452;59.418;17.962;2023-03-25T17:39:15;2.63;;;1.50;;
70832;SDS011;58452;59.418;17.962;2023-03-25T17:41:43;3.97;;;1.63;;
70832;SDS011;58452;59.418;17.962;2023-03-25T17:44:13;2.88;;;1.80;;
70832;SDS011;58452;59.418;17.962;2023-03-25T17:46:40;2.15;;;1.50;;
70832;SDS011;58452;59.418;17.962;2023-03-25T17:49:16;1.60;;;1.13;;
70832;SDS011;58452;59.418;17.962;2023-03-25T17:51:43;4.00;;;2.92;;
70832;SDS011;58452;59.418;17.962;2023-03-25T17:54:10;3.35;;;1.65;;
70832;SDS011;58452;59.418;17.962;2023-03-25T17:56:36;2.05;;;1.63;;
70832;SDS011;58452;59.418;17.962;2023-03-25T17:59:05;1.90;;;1.42;;
70832;SDS011;58452;59.418;17.962;2023-03-25T18:01:51;1.55;;;1.10;;
70832;SDS011;58452;59.418;17.962;2023-03-25T18:04:17;2.70;;;1.73;;
70832;SDS011;58452;59.418;17.962;2023-03-25T18:06:45;2.42;;;0.93;;
70832;SDS011;58452;59.418;17.962;2023-03-25T18:09:19;3.20;;;1.63;;
70832;SDS011;58452;59.418;17.962;2023-03-25T18:11:46;2.72;;;1.80;;
70832;SDS011;58452;59.418;17.962;2023-03-25T18:14:14;1.77;;;1.50;;
70832;SDS011;58452;59.418;17.962;2023-03-25T18:16:41;4.13;;;1.65;;
70832;SDS011;58452;59.418;17.962;2023-03-25T18:19:14;1.98;;;1.23;;
70832;SDS011;58452;59.418;17.962;2023-03-25T18:21:42;1.65;;;1.15;;
70832;SDS011;58452;59.418;17.962;2023-03-25T18:24:07;2.60;;;1.63;;
70832;SDS011;58452;59.418;17.962;2023-03-25T18:26:33;2.33;;;1.20;;